createdAt,value
2022-08-10T00:00:59.417Z,5.00
2022-08-10T00:07:08.143Z,6.30
2022-08-10T00:13:27.329Z,6.70
2022-08-10T00:19:00.608Z,9.80
2022-08-10T00:25:40.231Z,10.10
2022-08-10T00:30:51.739Z,5.20
2022-08-10T00:37:08.034Z,7.50
2022-08-10T00:43:23.841Z,8.90
2022-08-10T00:50:20.577Z,7.20
2022-08-10T00:57:17.920Z,9.80
2022-08-10T01:02:59.550Z,11.50
2022-08-10T01:09:40.823Z,9.30
2022-08-10T01:16:38.740Z,10.20
2022-08-10T01:23:38.868Z,11.40
2022-08-10T01:29:36.402Z,10.30
2022-08-10T01:35:32.276Z,9.50
2022-08-10T01:41:54.620Z,12.20
2022-08-10T01:48:51.471Z,20.60
2022-08-10T01:55:45.455Z,13.00
2022-08-10T02:02:28.356Z,16.70
2022-08-10T02:09:17.660Z,12.50
2022-08-10T02:16:01.974Z,13.60
2022-08-10T02:22:45.927Z,12.20
2022-08-10T02:29:15.476Z,10.20
2022-08-10T02:35:44.994Z,9.90
2022-08-10T02:45:23.508Z,12.30
2022-08-10T02:49:06.757Z,15.40
2022-08-10T02:55:18.420Z,10.90
2022-08-10T03:00:34.580Z,11.20
2022-08-10T03:06:34.573Z,10.30
2022-08-10T03:12:50.555Z,14.80
2022-08-10T03:20:36.033Z,8.70
2022-08-10T03:25:01.347Z,10.50
2022-08-10T03:31:16.239Z,12.50
2022-08-10T03:36:46.154Z,17.80
2022-08-10T03:43:00.144Z,13.20
2022-08-10T03:49:45.126Z,7.90
2022-08-10T03:56:29.625Z,11.10
2022-08-10T04:02:47.060Z,10.30
2022-08-10T04:09:12.739Z,9.40
2022-08-10T04:15:45.173Z,8.10
2022-08-10T04:22:04.362Z,14.20
2022-08-10T04:28:12.978Z,8.90
2022-08-10T04:34:08.999Z,11.10
2022-08-10T04:40:28.608Z,7.40
2022-08-10T04:46:55.416Z,10.10
2022-08-10T04:54:04.596Z,7.40
2022-08-10T05:05:37.410Z,7.30
2022-08-10T05:12:05.575Z,8.10
2022-08-10T05:19:08.422Z,8.20
2022-08-10T05:25:06.443Z,8.60
2022-08-10T05:30:34.274Z,9.10
2022-08-10T05:37:08.383Z,9.30
2022-08-10T05:43:30.318Z,6.70
2022-08-10T05:49:16.686Z,8.10
2022-08-10T05:54:59.564Z,12.30
2022-08-10T06:00:36.637Z,10.60
2022-08-10T06:07:27.552Z,7.10
2022-08-10T06:13:59.632Z,9.20
2022-08-10T06:20:37.095Z,9.30
2022-08-10T06:26:10.721Z,7.90
2022-08-10T06:32:42.521Z,5.50
2022-08-10T06:39:06.998Z,8.70
2022-08-10T06:46:09.387Z,8.60
2022-08-10T06:52:05.546Z,6.80
2022-08-10T06:58:00.152Z,9.70
2022-08-10T07:03:38.252Z,8.90
2022-08-10T07:09:43.943Z,7.40
2022-08-10T07:15:21.252Z,7.30
2022-08-10T07:20:47.109Z,7.90
2022-08-10T07:26:11.644Z,8.50
2022-08-10T07:31:57.046Z,8.30
2022-08-10T07:37:10.944Z,9.10
2022-08-10T07:42:45.059Z,5.20
2022-08-10T07:48:29.492Z,6.60
2022-08-10T07:53:53.003Z,10.50
2022-08-10T07:59:25.065Z,5.80
2022-08-10T08:04:54.731Z,8.10
2022-08-10T08:11:26.342Z,6.90
2022-08-10T08:17:11.546Z,5.60
2022-08-10T08:24:09.604Z,7.10
2022-08-10T08:28:58.443Z,6.50
2022-08-10T08:35:15.136Z,3.10
2022-08-10T08:40:34.540Z,3.60
2022-08-10T08:46:33.378Z,2.90
2022-08-10T08:52:18.702Z,3.30
2022-08-10T08:57:49.425Z,5.90
2022-08-10T09:03:15.034Z,6.30
2022-08-10T09:09:07.193Z,4.80
2022-08-10T09:14:50.839Z,3.60
2022-08-10T09:21:02.050Z,4.50
2022-08-10T09:26:16.904Z,3.90
2022-08-10T09:36:13.944Z,3.00
2022-08-10T09:38:15.670Z,4.00
2022-08-10T09:44:01.490Z,3.10
2022-08-10T09:50:04.161Z,4.20
2022-08-10T09:57:17.894Z,3.60
2022-08-10T10:02:56.641Z,3.20
2022-08-10T10:08:38.371Z,3.00
2022-08-10T10:14:57.805Z,4.50
2022-08-10T10:21:00.806Z,4.50
2022-08-10T10:26:58.743Z,2.50
2022-08-10T10:33:03.474Z,4.20
2022-08-10T10:38:33.115Z,3.70
2022-08-10T10:43:56.909Z,3.40
2022-08-10T10:49:41.257Z,2.90
2022-08-10T10:55:30.720Z,4.70
2022-08-10T11:01:23.669Z,3.20
2022-08-10T11:07:31.986Z,3.70
2022-08-10T11:14:23.041Z,5.20
2022-08-10T11:20:01.327Z,2.70
2022-08-10T11:25:36.709Z,2.20
2022-08-10T11:31:07.278Z,5.10
2022-08-10T11:36:41.854Z,2.50
2022-08-10T11:42:08.884Z,2.50
2022-08-10T11:47:36.186Z,3.50
2022-08-10T11:53:22.876Z,2.40
2022-08-10T11:59:00.319Z,2.60
2022-08-10T12:04:16.909Z,2.70
2022-08-10T12:10:11.622Z,2.70
2022-08-10T12:15:03.436Z,2.30
2022-08-10T12:20:16.980Z,4.10
2022-08-10T12:26:15.414Z,4.50
2022-08-10T12:31:22.266Z,4.10
2022-08-10T12:36:58.086Z,2.40
2022-08-10T12:43:13.395Z,2.90
2022-08-10T12:48:16.995Z,2.60
2022-08-10T12:53:26.849Z,2.70
2022-08-10T12:59:00.020Z,2.80
2022-08-10T13:04:22.528Z,2.50
2022-08-10T13:09:33.583Z,2.30
2022-08-10T13:14:53.135Z,2.80
2022-08-10T13:20:03.418Z,3.20
2022-08-10T13:25:24.470Z,3.20
2022-08-10T13:30:39.633Z,7.30
2022-08-10T13:41:24.579Z,2.80
2022-08-10T13:47:10.148Z,2.60
2022-08-10T13:52:33.888Z,2.70
2022-08-10T13:58:03.693Z,2.70
2022-08-10T14:03:19.415Z,5.70
2022-08-10T14:08:29.590Z,2.50
2022-08-10T14:13:36.226Z,2.90
2022-08-10T14:18:45.022Z,3.30
2022-08-10T14:23:53.015Z,3.00
2022-08-10T14:29:06.703Z,4.10
2022-08-10T14:36:16.543Z,4.10
2022-08-10T14:40:04.842Z,4.30
2022-08-10T14:45:28.101Z,3.00
2022-08-10T14:50:33.640Z,3.80
2022-08-10T14:56:13.685Z,5.10
2022-08-10T15:01:22.378Z,2.50
2022-08-10T15:06:30.653Z,2.50
2022-08-10T15:12:15.293Z,2.90
2022-08-10T15:16:59.718Z,5.30
2022-08-10T15:22:35.734Z,3.00
2022-08-10T15:27:53.522Z,4.00
2022-08-10T15:34:02.074Z,2.90
2022-08-10T15:39:00.803Z,3.00
2022-08-10T15:44:06.527Z,2.50
2022-08-10T15:49:18.159Z,2.70
2022-08-10T15:54:55.013Z,2.90
2022-08-10T16:00:28.171Z,2.60
2022-08-10T16:06:03.418Z,3.10
2022-08-10T16:11:23.062Z,2.10
2022-08-10T16:16:34.766Z,2.50
2022-08-10T16:21:55.222Z,3.50
2022-08-10T16:27:26.287Z,3.00
2022-08-10T16:33:14.390Z,2.80
2022-08-10T16:38:52.033Z,2.70
2022-08-10T16:44:33.762Z,6.10
2022-08-10T16:49:49.554Z,2.50
2022-08-10T16:55:48.972Z,2.80
2022-08-10T17:01:24.236Z,2.30
2022-08-10T17:12:47.891Z,5.30
2022-08-10T17:18:37.348Z,1.40
2022-08-10T17:24:11.892Z,2.30
2022-08-10T17:29:58.483Z,3.50
2022-08-10T17:36:05.870Z,3.30
2022-08-10T17:41:28.503Z,3.00
2022-08-10T17:47:11.079Z,5.00
2022-08-10T17:53:00.830Z,3.80
2022-08-10T17:58:18.608Z,3.10
2022-08-10T18:03:51.464Z,1.90
2022-08-10T18:09:40.531Z,2.10
2022-08-10T18:15:45.321Z,1.90
2022-08-10T18:21:23.865Z,3.50
2022-08-10T18:27:10.507Z,9.20
2022-08-10T18:32:41.596Z,4.20
2022-08-10T18:37:55.633Z,2.30
2022-08-10T18:44:07.741Z,2.50
2022-08-10T18:49:10.732Z,3.70
2022-08-10T18:54:39.401Z,5.10
2022-08-10T19:00:13.010Z,3.80
2022-08-10T19:06:15.281Z,1.80
2022-08-10T19:12:07.426Z,2.50
2022-08-10T19:18:01.292Z,6.80
2022-08-10T19:23:36.440Z,2.50
2022-08-10T19:29:05.223Z,3.60
2022-08-10T19:34:44.033Z,2.70
2022-08-10T19:40:43.393Z,2.50
2022-08-10T19:46:02.632Z,6.70
2022-08-10T19:51:20.240Z,3.40
2022-08-10T19:56:35.038Z,4.00
2022-08-10T20:01:54.478Z,4.60
2022-08-10T20:07:30.621Z,5.80
2022-08-10T20:13:58.189Z,5.00
2022-08-10T20:19:54.866Z,3.90
2022-08-10T20:26:09.746Z,4.40
2022-08-10T20:32:31.405Z,3.20
2022-08-10T20:38:12.230Z,5.80
2022-08-10T20:44:17.355Z,2.50
2022-08-10T20:50:44.559Z,5.10
2022-08-10T20:56:25.674Z,6.20
2022-08-10T21:02:31.852Z,8.20
2022-08-10T21:08:25.824Z,6.90
2022-08-10T21:14:44.389Z,5.10
2022-08-10T21:20:34.475Z,3.30
2022-08-10T21:26:29.513Z,4.50
2022-08-10T21:32:18.597Z,3.00
2022-08-10T21:38:15.026Z,4.80
2022-08-10T21:45:58.312Z,2.70
2022-08-10T21:53:04.925Z,2.70
2022-08-10T22:00:02.423Z,6.80
2022-08-10T22:06:52.121Z,4.10
2022-08-10T22:13:13.156Z,4.70
2022-08-10T22:20:01.727Z,7.30
2022-08-10T22:26:23.826Z,4.20
2022-08-10T22:32:58.381Z,2.30
2022-08-10T22:40:09.403Z,4.20
2022-08-10T22:46:42.340Z,3.70
2022-08-10T22:53:06.784Z,5.10
2022-08-10T22:59:22.366Z,3.00
2022-08-10T23:06:24.018Z,2.30
2022-08-10T23:12:59.541Z,3.10
2022-08-10T23:20:15.612Z,4.10
2022-08-10T23:26:57.118Z,6.60
2022-08-10T23:34:00.876Z,3.40
2022-08-10T23:40:26.316Z,3.20
2022-08-10T23:46:42.119Z,3.50
2022-08-10T23:53:32.419Z,10.60
